Wetterdaten: Woche 21.07.14 - 27.07.14 (KW30)
Datum Zeit Temp. Aussen +5cm Feuchte Auss Luftdruck Regen Sonnenschein Regendauer UV Solar Windben
21.07.2014 00:00 20,1 C 18,9 C 99 % 1010,2 hPa 0,0 l/m 0,00 h 0,00 h 0,0 UV-I 0 W/m 0,1 km/h (0 Bft)
21.07.2014 01:00 19,9 C 18,7 C 99 % 1010,4 hPa 0,0 l/m 0,00 h 0,00 h 0,0 UV-I 0 W/m 0,1 km/h (0 Bft)
21.07.2014 02:00 19,9 C 18,7 C 99 % 1010,7 hPa 0,0 l/m 0,00 h 0,00 h 0,0 UV-I 0 W/m 0,2 km/h (0 Bft)
21.07.2014 03:00 19,7 C 18,4 C 99 % 1010,4 hPa 0,0 l/m 0,00 h 0,00 h 0,0 UV-I 0 W/m 0,5 km/h (0 Bft)
21.07.2014 04:00 19,6 C 18,3 C 99 % 1010,1 hPa 0,0 l/m 0,00 h 0,00 h 0,0 UV-I 0 W/m 1,2 km/h (1 Bft)
21.07.2014 05:00 19,6 C 18,3 C 99 % 1010,0 hPa 0,0 l/m 0,00 h 0,00 h 0,0 UV-I 0 W/m 4,8 km/h (1 Bft)
21.07.2014 06:00 19,7 C 18,5 C 100 % 1010,2 hPa 0,0 l/m 0,00 h 0,00 h 0,0 UV-I 13 W/m 5,1 km/h (1 Bft)
21.07.2014 07:00 19,8 C 18,9 C 100 % 1010,2 hPa 0,0 l/m 0,00 h 0,00 h 0,0 UV-I 32 W/m 11,8 km/h (2 Bft)
21.07.2014 08:00 19,9 C 18,9 C 99 % 1010,6 hPa 0,0 l/m 0,00 h 0,03 h 0,0 UV-I 28 W/m 11,4 km/h (2 Bft)
21.07.2014 09:00 19,4 C 18,0 C 98 % 1011,3 hPa 4,4 l/m 0,00 h 0,83 h 0,0 UV-I 16 W/m 8,6 km/h (2 Bft)
21.07.2014 10:00 19,1 C 18,0 C 99 % 1011,7 hPa 1,0 l/m 0,00 h 0,63 h 0,0 UV-I 92 W/m 1,8 km/h (1 Bft)
21.07.2014 11:00 20,0 C 19,5 C 99 % 1012,2 hPa 0,0 l/m 0,00 h 0,30 h 0,9 UV-I 207 W/m 7,4 km/h (2 Bft)
21.07.2014 12:00 20,9 C 20,1 C 98 % 1012,4 hPa 0,2 l/m 0,13 h 0,63 h 1,7 UV-I 306 W/m 7,5 km/h (2 Bft)
21.07.2014 13:00 21,3 C 20,2 C 95 % 1012,5 hPa 0,0 l/m 0,00 h 0,07 h 1,1 UV-I 200 W/m 10,1 km/h (2 Bft)
21.07.2014 14:00 20,8 C 19,5 C 96 % 1012,6 hPa 0,8 l/m 0,00 h 0,53 h 0,8 UV-I 159 W/m 10,0 km/h (2 Bft)
21.07.2014 15:00 20,6 C 18,7 C 94 % 1012,6 hPa 0,0 l/m 0,00 h 0,00 h 0,4 UV-I 85 W/m 12,4 km/h (3 Bft)
21.07.2014 16:00 20,0 C 18,3 C 96 % 1013,1 hPa 0,8 l/m 0,00 h 0,40 h 0,0 UV-I 90 W/m 15,6 km/h (3 Bft)
21.07.2014 17:00 19,9 C 18,5 C 98 % 1013,1 hPa 0,0 l/m 0,00 h 0,00 h 0,0 UV-I 85 W/m 13,7 km/h (3 Bft)
21.07.2014 18:00 19,8 C 18,3 C 98 % 1013,4 hPa 0,2 l/m 0,00 h 0,33 h 0,0 UV-I 35 W/m 15,6 km/h (3 Bft)
21.07.2014 19:00 19,7 C 18,3 C 98 % 1013,6 hPa 0,0 l/m 0,00 h 0,17 h 0,0 UV-I 29 W/m 13,1 km/h (3 Bft)
21.07.2014 20:00 19,7 C 18,3 C 98 % 1013,8 hPa 0,0 l/m 0,00 h 0,00 h 0,0 UV-I 15 W/m 13,0 km/h (3 Bft)
21.07.2014 21:00 19,4 C 17,9 C 98 % 1014,1 hPa 0,2 l/m 0,00 h 0,13 h 0,0 UV-I 7 W/m 11,0 km/h (2 Bft)
21.07.2014 22:00 19,0 C 17,8 C 99 % 1014,5 hPa 0,0 l/m 0,00 h 0,00 h 0,0 UV-I 0 W/m 11,5 km/h (2 Bft)
21.07.2014 23:00 18,9 C 17,8 C 99 % 1014,6 hPa 0,0 l/m 0,00 h 0,00 h 0,0 UV-I 0 W/m 10,5 km/h (2 Bft)
22.07.2014 00:00 18,9 C 17,8 C 99 % 1014,8 hPa 0,0 l/m 0,00 h 0,00 h 0,0 UV-I 0 W/m 10,2 km/h (2 Bft)
22.07.2014 01:00 19,0 C 17,8 C 100 % 1014,9 hPa 0,0 l/m 0,00 h 0,00 h 0,0 UV-I 0 W/m 8,7 km/h (2 Bft)
22.07.2014 02:00 19,1 C 17,8 C 100 % 1014,9 hPa 0,0 l/m 0,00 h 0,03 h 0,0 UV-I 0 W/m 7,1 km/h (2 Bft)
22.07.2014 03:00 19,1 C 17,8 C 100 % 1014,8 hPa 0,4 l/m 0,00 h 0,37 h 0,0 UV-I 0 W/m 8,3 km/h (2 Bft)
22.07.2014 04:00 19,1 C 17,8 C 100 % 1014,9 hPa 0,0 l/m 0,00 h 0,00 h 0,0 UV-I 0 W/m 10,2 km/h (2 Bft)
22.07.2014 05:00 19,2 C 17,8 C 100 % 1015,1 hPa 0,0 l/m 0,00 h 0,07 h 0,0 UV-I 5 W/m 0,7 km/h (0 Bft)
22.07.2014 06:00 19,2 C 17,8 C 100 % 1015,3 hPa 0,0 l/m 0,00 h 0,00 h 0,0 UV-I 14 W/m 11,2 km/h (2 Bft)
22.07.2014 07:00 19,2 C 17,9 C 100 % 1015,7 hPa 0,0 l/m 0,00 h 0,00 h 0,0 UV-I 34 W/m 10,6 km/h (2 Bft)
22.07.2014 08:00 19,5 C 18,2 C 100 % 1016,1 hPa 0,0 l/m 0,33 h 0,00 h 0,4 UV-I 183 W/m 13,2 km/h (3 Bft)
22.07.2014 09:00 21,1 C 19,1 C 93 % 1016,5 hPa 0,0 l/m 1,00 h 0,00 h 1,2 UV-I 455 W/m 18,5 km/h (3 Bft)
22.07.2014 10:00 22,0 C 22,0 C 84 % 1016,9 hPa 0,0 l/m 1,00 h 0,00 h 2,1 UV-I 452 W/m 18,4 km/h (3 Bft)
22.07.2014 11:00 23,4 C 24,6 C 77 % 1017,0 hPa 0,0 l/m 1,00 h 0,00 h 3,8 UV-I 675 W/m 22,7 km/h (4 Bft)
22.07.2014 12:00 24,4 C 26,0 C 75 % 1017,2 hPa 0,0 l/m 0,77 h 0,00 h 4,5 UV-I 609 W/m 21,9 km/h (4 Bft)
22.07.2014 13:00 25,2 C 24,9 C 74 % 1017,3 hPa 0,0 l/m 1,00 h 0,00 h 4,4 UV-I 762 W/m 21,2 km/h (4 Bft)
22.07.2014 14:00 25,6 C 24,9 C 73 % 1017,2 hPa 0,0 l/m 0,97 h 0,00 h 3,7 UV-I 585 W/m 21,1 km/h (4 Bft)
22.07.2014 15:00 26,3 C 25,7 C 71 % 1017,1 hPa 0,0 l/m 1,00 h 0,00 h 3,3 UV-I 582 W/m 21,5 km/h (4 Bft)
22.07.2014 16:00 27,1 C 27,5 C 69 % 1016,8 hPa 0,0 l/m 1,00 h 0,00 h 2,5 UV-I 551 W/m 22,0 km/h (4 Bft)
22.07.2014 17:00 26,8 C 23,8 C 67 % 1016,8 hPa 0,0 l/m 1,00 h 0,00 h 1,2 UV-I 404 W/m 24,6 km/h (4 Bft)
22.07.2014 18:00 26,3 C 22,7 C 68 % 1016,9 hPa 0,0 l/m 0,97 h 0,00 h 0,6 UV-I 311 W/m 25,1 km/h (4 Bft)
22.07.2014 19:00 26,1 C 23,9 C 64 % 1017,2 hPa 0,0 l/m 1,00 h 0,00 h 0,0 UV-I 182 W/m 21,0 km/h (4 Bft)
22.07.2014 20:00 25,4 C 23,3 C 68 % 1017,4 hPa 0,0 l/m 0,40 h 0,00 h 0,0 UV-I 70 W/m 14,0 km/h (3 Bft)
22.07.2014 21:00 23,8 C 21,3 C 75 % 1017,9 hPa 0,0 l/m 0,23 h 0,00 h 0,0 UV-I 14 W/m 2,2 km/h (1 Bft)
22.07.2014 22:00 21,4 C 18,8 C 84 % 1018,5 hPa 0,0 l/m 0,00 h 0,00 h 0,0 UV-I 0 W/m 0,0 km/h (0 Bft)
22.07.2014 23:00 20,2 C 17,9 C 89 % 1018,6 hPa 0,0 l/m 0,00 h 0,00 h 0,0 UV-I 0 W/m 0,0 km/h (0 Bft)
23.07.2014 00:00 19,5 C 17,2 C 90 % 1018,6 hPa 0,0 l/m 0,00 h 0,00 h 0,0 UV-I 0 W/m 0,0 km/h (0 Bft)
23.07.2014 01:00 18,8 C 16,7 C 93 % 1018,5 hPa 0,0 l/m 0,00 h 0,00 h 0,0 UV-I 0 W/m 0,0 km/h (0 Bft)
23.07.2014 02:00 18,4 C 16,7 C 94 % 1018,3 hPa 0,0 l/m 0,00 h 0,00 h 0,0 UV-I 0 W/m 0,0 km/h (0 Bft)
23.07.2014 03:00 18,1 C 16,1 C 95 % 1018,0 hPa 0,0 l/m 0,00 h 0,00 h 0,0 UV-I 0 W/m 0,0 km/h (0 Bft)
23.07.2014 04:00 17,7 C 16,0 C 96 % 1017,7 hPa 0,0 l/m 0,00 h 0,00 h 0,0 UV-I 0 W/m 0,0 km/h (0 Bft)
23.07.2014 05:00 18,1 C 16,6 C 96 % 1017,8 hPa 0,0 l/m 0,00 h 0,00 h 0,0 UV-I 6 W/m 3,1 km/h (1 Bft)
23.07.2014 06:00 18,6 C 17,4 C 95 % 1018,0 hPa 0,0 l/m 0,00 h 0,00 h 0,0 UV-I 34 W/m 0,0 km/h (0 Bft)
23.07.2014 07:00 19,9 C 18,8 C 92 % 1018,2 hPa 0,0 l/m 0,10 h 0,00 h 0,0 UV-I 88 W/m 1,6 km/h (1 Bft)
23.07.2014 08:00 21,4 C 19,8 C 83 % 1018,1 hPa 0,0 l/m 0,67 h 0,00 h 0,4 UV-I 254 W/m 12,1 km/h (2 Bft)
23.07.2014 09:00 22,4 C 21,3 C 77 % 1018,2 hPa 0,0 l/m 0,60 h 0,00 h 1,0 UV-I 329 W/m 13,9 km/h (3 Bft)
23.07.2014 10:00 24,6 C 27,4 C 71 % 1018,1 hPa 0,0 l/m 0,97 h 0,00 h 2,7 UV-I 618 W/m 18,5 km/h (3 Bft)
23.07.2014 11:00 25,7 C 26,9 C 66 % 1017,9 hPa 0,0 l/m 0,97 h 0,00 h 3,3 UV-I 618 W/m 22,6 km/h (4 Bft)
23.07.2014 12:00 26,8 C 29,0 C 64 % 1017,6 hPa 0,0 l/m 0,77 h 0,00 h 4,3 UV-I 602 W/m 22,9 km/h (4 Bft)
23.07.2014 13:00 28,2 C 27,8 C 61 % 1017,3 hPa 0,0 l/m 1,00 h 0,00 h 4,5 UV-I 773 W/m 24,9 km/h (4 Bft)
23.07.2014 14:00 29,0 C 27,8 C 58 % 1016,7 hPa 0,0 l/m 1,00 h 0,00 h 4,3 UV-I 744 W/m 25,2 km/h (4 Bft)
23.07.2014 15:00 29,5 C 28,2 C 56 % 1016,1 hPa 0,0 l/m 1,00 h 0,00 h 3,6 UV-I 687 W/m 23,8 km/h (4 Bft)
23.07.2014 16:00 30,2 C 31,5 C 53 % 1015,9 hPa 0,0 l/m 0,97 h 0,00 h 2,5 UV-I 576 W/m 24,1 km/h (4 Bft)
23.07.2014 17:00 29,7 C 27,9 C 54 % 1015,4 hPa 0,0 l/m 1,00 h 0,00 h 1,2 UV-I 459 W/m 20,1 km/h (4 Bft)
23.07.2014 18:00 28,6 C 26,6 C 56 % 1015,1 hPa 0,0 l/m 0,73 h 0,00 h 0,5 UV-I 276 W/m 20,5 km/h (4 Bft)
23.07.2014 19:00 27,8 C 25,9 C 57 % 1015,2 hPa 0,0 l/m 0,93 h 0,00 h 0,0 UV-I 168 W/m 19,1 km/h (3 Bft)
23.07.2014 20:00 26,5 C 24,6 C 60 % 1015,3 hPa 0,0 l/m 0,30 h 0,00 h 0,0 UV-I 65 W/m 16,0 km/h (3 Bft)
23.07.2014 21:00 24,9 C 22,8 C 64 % 1015,5 hPa 0,0 l/m 0,20 h 0,00 h 0,0 UV-I 14 W/m 11,2 km/h (2 Bft)
23.07.2014 22:00 23,1 C 21,4 C 69 % 1015,8 hPa 0,0 l/m 0,00 h 0,00 h 0,0 UV-I 0 W/m 3,9 km/h (1 Bft)
23.07.2014 23:00 21,7 C 20,0 C 74 % 1015,8 hPa 0,0 l/m 0,00 h 0,00 h 0,0 UV-I 0 W/m 0,9 km/h (0 Bft)
24.07.2014 00:00 20,5 C 18,5 C 78 % 1015,6 hPa 0,0 l/m 0,00 h 0,00 h 0,0 UV-I 0 W/m 0,2 km/h (0 Bft)
24.07.2014 01:00 19,2 C 17,2 C 84 % 1015,5 hPa 0,0 l/m 0,00 h 0,00 h 0,0 UV-I 0 W/m 0,9 km/h (0 Bft)
24.07.2014 02:00 18,4 C 16,4 C 86 % 1015,2 hPa 0,0 l/m 0,00 h 0,00 h 0,0 UV-I 0 W/m 0,3 km/h (0 Bft)
24.07.2014 03:00 17,3 C 15,5 C 89 % 1015,0 hPa 0,0 l/m 0,00 h 0,00 h 0,0 UV-I 0 W/m 0,4 km/h (0 Bft)
24.07.2014 04:00 17,2 C 15,0 C 87 % 1014,8 hPa 0,0 l/m 0,00 h 0,00 h 0,0 UV-I 0 W/m 1,3 km/h (1 Bft)
24.07.2014 05:00 15,9 C 14,3 C 91 % 1014,8 hPa 0,0 l/m 0,00 h 0,00 h 0,0 UV-I 7 W/m 0,0 km/h (0 Bft)
24.07.2014 06:00 15,8 C 14,2 C 93 % 1014,8 hPa 0,0 l/m 0,97 h 0,00 h 0,0 UV-I 67 W/m 0,0 km/h (0 Bft)
24.07.2014 07:00 17,9 C 16,3 C 86 % 1015,0 hPa 0,0 l/m 0,60 h 0,00 h 0,0 UV-I 128 W/m 6,1 km/h (2 Bft)
24.07.2014 08:00 20,0 C 18,6 C 77 % 1015,1 hPa 0,0 l/m 0,97 h 0,00 h 0,6 UV-I 321 W/m 14,4 km/h (3 Bft)
24.07.2014 09:00 22,5 C 21,4 C 69 % 1014,9 hPa 0,0 l/m 1,00 h 0,00 h 1,4 UV-I 499 W/m 20,2 km/h (4 Bft)
24.07.2014 10:00 24,3 C 27,4 C 61 % 1014,8 hPa 0,0 l/m 1,00 h 0,00 h 2,5 UV-I 620 W/m 21,4 km/h (4 Bft)
24.07.2014 11:00 25,5 C 27,9 C 57 % 1014,7 hPa 0,0 l/m 1,00 h 0,00 h 3,6 UV-I 723 W/m 23,7 km/h (4 Bft)
24.07.2014 12:00 26,6 C 29,6 C 56 % 1014,5 hPa 0,0 l/m 0,73 h 0,00 h 4,2 UV-I 612 W/m 22,2 km/h (4 Bft)
24.07.2014 13:00 27,2 C 27,6 C 54 % 1014,2 hPa 0,0 l/m 0,93 h 0,00 h 3,8 UV-I 676 W/m 23,8 km/h (4 Bft)
24.07.2014 14:00 27,6 C 27,1 C 53 % 1013,8 hPa 0,0 l/m 0,87 h 0,00 h 3,8 UV-I 708 W/m 22,9 km/h (4 Bft)
24.07.2014 15:00 27,7 C 26,8 C 50 % 1013,4 hPa 0,0 l/m 0,60 h 0,00 h 2,7 UV-I 502 W/m 25,2 km/h (4 Bft)
24.07.2014 16:00 28,2 C 30,0 C 48 % 1013,3 hPa 0,0 l/m 0,93 h 0,00 h 2,2 UV-I 577 W/m 24,4 km/h (4 Bft)
24.07.2014 17:00 25,6 C 24,6 C 53 % 1013,7 hPa 0,0 l/m 0,13 h 0,00 h 1,1 UV-I 187 W/m 15,7 km/h (3 Bft)
24.07.2014 18:00 21,1 C 20,6 C 67 % 1014,1 hPa 0,0 l/m 0,13 h 0,00 h 0,0 UV-I 135 W/m 18,2 km/h (3 Bft)
24.07.2014 19:00 21,1 C 20,5 C 72 % 1014,1 hPa 0,0 l/m 0,37 h 0,00 h 0,3 UV-I 127 W/m 5,4 km/h (1 Bft)
24.07.2014 20:00 20,7 C 18,3 C 75 % 1014,3 hPa 0,2 l/m 0,60 h 0,53 h 0,0 UV-I 102 W/m 9,8 km/h (2 Bft)
24.07.2014 21:00 19,2 C 16,8 C 84 % 1014,4 hPa 0,0 l/m 0,17 h 0,00 h 0,0 UV-I 12 W/m 5,0 km/h (1 Bft)
24.07.2014 22:00 18,2 C 16,7 C 88 % 1014,8 hPa 0,0 l/m 0,00 h 0,00 h 0,0 UV-I 0 W/m 0,1 km/h (0 Bft)
24.07.2014 23:00 18,1 C 16,3 C 89 % 1015,1 hPa 0,0 l/m 0,00 h 0,00 h 0,0 UV-I 0 W/m 2,0 km/h (1 Bft)
25.07.2014 00:00 16,9 C 15,4 C 93 % 1015,1 hPa 0,0 l/m 0,00 h 0,00 h 0,0 UV-I 0 W/m 0,1 km/h (0 Bft)
25.07.2014 01:00 16,9 C 15,0 C 92 % 1015,1 hPa 0,0 l/m 0,00 h 0,00 h 0,0 UV-I 0 W/m 1,1 km/h (1 Bft)
25.07.2014 02:00 16,6 C 14,4 C 91 % 1015,0 hPa 0,0 l/m 0,00 h 0,00 h 0,0 UV-I 0 W/m 0,1 km/h (0 Bft)
25.07.2014 03:00 16,1 C 14,4 C 93 % 1014,5 hPa 0,0 l/m 0,00 h 0,00 h 0,0 UV-I 0 W/m 1,2 km/h (1 Bft)
25.07.2014 04:00 16,1 C 14,3 C 91 % 1014,4 hPa 0,0 l/m 0,00 h 0,00 h 0,0 UV-I 0 W/m 2,5 km/h (1 Bft)
25.07.2014 05:00 16,3 C 15,0 C 89 % 1014,5 hPa 0,0 l/m 0,00 h 0,00 h 0,0 UV-I 0 W/m 3,4 km/h (1 Bft)
25.07.2014 06:00 16,5 C 15,5 C 90 % 1014,5 hPa 0,0 l/m 0,00 h 0,00 h 0,0 UV-I 22 W/m 0,2 km/h (0 Bft)
25.07.2014 07:00 17,3 C 16,6 C 90 % 1014,6 hPa 0,0 l/m 0,00 h 0,00 h 0,0 UV-I 72 W/m 4,6 km/h (1 Bft)
25.07.2014 08:00 18,3 C 17,8 C 87 % 1014,7 hPa 0,0 l/m 0,00 h 0,00 h 0,0 UV-I 129 W/m 13,0 km/h (3 Bft)
25.07.2014 09:00 19,0 C 18,5 C 84 % 1014,8 hPa 0,0 l/m 0,00 h 0,00 h 0,1 UV-I 150 W/m 16,4 km/h (3 Bft)
25.07.2014 10:00 19,7 C 19,5 C 82 % 1014,8 hPa 0,0 l/m 0,00 h 0,00 h 0,7 UV-I 206 W/m 15,1 km/h (3 Bft)
25.07.2014 11:00 19,4 C 18,9 C 83 % 1014,7 hPa 0,0 l/m 0,00 h 0,00 h 0,6 UV-I 152 W/m 13,7 km/h (3 Bft)
25.07.2014 12:00 19,6 C 19,6 C 84 % 1014,5 hPa 0,0 l/m 0,30 h 0,00 h 1,8 UV-I 321 W/m 18,1 km/h (3 Bft)
25.07.2014 13:00 20,8 C 21,6 C 80 % 1014,3 hPa 0,0 l/m 0,97 h 0,00 h 4,0 UV-I 676 W/m 22,4 km/h (4 Bft)
25.07.2014 14:00 21,1 C 21,7 C 80 % 1013,9 hPa 0,0 l/m 0,97 h 0,00 h 4,3 UV-I 786 W/m 24,3 km/h (4 Bft)
25.07.2014 15:00 21,5 C 21,6 C 78 % 1013,4 hPa 0,0 l/m 1,00 h 0,00 h 3,8 UV-I 683 W/m 25,6 km/h (4 Bft)
25.07.2014 16:00 21,3 C 23,2 C 79 % 1013,4 hPa 0,0 l/m 0,90 h 0,00 h 2,3 UV-I 562 W/m 23,1 km/h (4 Bft)
25.07.2014 17:00 21,3 C 20,9 C 79 % 1012,9 hPa 0,0 l/m 0,80 h 0,00 h 0,8 UV-I 366 W/m 20,8 km/h (4 Bft)
25.07.2014 18:00 21,5 C 20,8 C 78 % 1012,8 hPa 0,0 l/m 0,77 h 0,00 h 0,4 UV-I 286 W/m 19,0 km/h (3 Bft)
25.07.2014 19:00 21,1 C 20,1 C 79 % 1012,7 hPa 0,0 l/m 1,00 h 0,00 h 0,0 UV-I 178 W/m 15,7 km/h (3 Bft)
25.07.2014 20:00 20,7 C 19,6 C 81 % 1012,6 hPa 0,0 l/m 0,53 h 0,00 h 0,0 UV-I 62 W/m 13,4 km/h (3 Bft)
25.07.2014 21:00 19,7 C 18,4 C 84 % 1012,9 hPa 0,0 l/m 0,00 h 0,00 h 0,0 UV-I 9 W/m 8,9 km/h (2 Bft)
25.07.2014 22:00 18,5 C 17,1 C 89 % 1013,0 hPa 0,0 l/m 0,00 h 0,00 h 0,0 UV-I 0 W/m 2,2 km/h (1 Bft)
25.07.2014 23:00 17,6 C 16,5 C 92 % 1013,1 hPa 0,0 l/m 0,00 h 0,00 h 0,0 UV-I 0 W/m 2,9 km/h (1 Bft)
26.07.2014 00:00 17,0 C 15,8 C 94 % 1013,1 hPa 0,0 l/m 0,00 h 0,00 h 0,0 UV-I 0 W/m 2,7 km/h (1 Bft)
26.07.2014 01:00 16,4 C 15,1 C 96 % 1013,1 hPa 0,0 l/m 0,00 h 0,00 h 0,0 UV-I 0 W/m 0,1 km/h (0 Bft)
26.07.2014 02:00 15,9 C 14,5 C 97 % 1013,1 hPa 0,0 l/m 0,00 h 0,00 h 0,0 UV-I 0 W/m 0,1 km/h (0 Bft)
26.07.2014 03:00 15,4 C 14,1 C 98 % 1012,9 hPa 0,0 l/m 0,00 h 0,00 h 0,0 UV-I 0 W/m 0,0 km/h (0 Bft)
26.07.2014 04:00 15,2 C 14,0 C 98 % 1012,7 hPa 0,0 l/m 0,00 h 0,00 h 0,0 UV-I 0 W/m 0,0 km/h (0 Bft)
26.07.2014 05:00 15,6 C 14,5 C 99 % 1012,7 hPa 0,0 l/m 0,00 h 0,00 h 0,0 UV-I 0 W/m 2,1 km/h (1 Bft)
26.07.2014 06:00 15,7 C 14,9 C 99 % 1013,0 hPa 0,0 l/m 0,00 h 0,00 h 0,0 UV-I 13 W/m 1,5 km/h (1 Bft)
26.07.2014 07:00 15,9 C 15,3 C 100 % 1013,1 hPa 0,0 l/m 0,00 h 0,00 h 0,0 UV-I 38 W/m 2,0 km/h (1 Bft)
26.07.2014 08:00 16,3 C 16,3 C 100 % 1013,3 hPa 0,0 l/m 0,00 h 0,00 h 0,0 UV-I 71 W/m 0,6 km/h (0 Bft)
26.07.2014 09:00 16,6 C 17,0 C 100 % 1013,6 hPa 0,0 l/m 0,00 h 0,00 h 0,0 UV-I 102 W/m 2,9 km/h (1 Bft)
26.07.2014 10:00 17,6 C 18,1 C 100 % 1013,7 hPa 0,0 l/m 0,00 h 0,00 h 0,2 UV-I 151 W/m 7,6 km/h (2 Bft)
26.07.2014 11:00 18,8 C 19,3 C 94 % 1014,1 hPa 0,0 l/m 0,17 h 0,00 h 1,2 UV-I 239 W/m 7,1 km/h (2 Bft)
26.07.2014 12:00 21,4 C 23,0 C 84 % 1014,1 hPa 0,0 l/m 0,77 h 0,00 h 2,7 UV-I 481 W/m 9,9 km/h (2 Bft)
26.07.2014 13:00 22,1 C 22,7 C 80 % 1013,6 hPa 0,0 l/m 0,40 h 0,00 h 2,8 UV-I 444 W/m 8,5 km/h (2 Bft)
26.07.2014 14:00 24,1 C 23,9 C 71 % 1013,3 hPa 0,0 l/m 0,63 h 0,00 h 3,7 UV-I 576 W/m 8,0 km/h (2 Bft)
26.07.2014 15:00 25,8 C 25,3 C 62 % 1012,9 hPa 0,0 l/m 1,00 h 0,00 h 3,5 UV-I 697 W/m 12,5 km/h (3 Bft)
26.07.2014 16:00 26,0 C 28,5 C 61 % 1012,8 hPa 0,0 l/m 0,93 h 0,00 h 2,5 UV-I 579 W/m 9,1 km/h (2 Bft)
26.07.2014 17:00 25,9 C 25,0 C 61 % 1012,7 hPa 0,0 l/m 0,67 h 0,00 h 1,1 UV-I 359 W/m 6,9 km/h (2 Bft)
26.07.2014 18:00 25,1 C 22,2 C 65 % 1012,7 hPa 0,0 l/m 0,77 h 0,00 h 0,5 UV-I 292 W/m 5,6 km/h (1 Bft)
26.07.2014 19:00 24,3 C 18,4 C 68 % 1012,7 hPa 0,0 l/m 0,47 h 0,00 h 0,0 UV-I 138 W/m 4,1 km/h (1 Bft)
26.07.2014 20:00 23,6 C 17,9 C 72 % 1013,0 hPa 0,0 l/m 0,00 h 0,00 h 0,0 UV-I 35 W/m 0,2 km/h (0 Bft)
26.07.2014 21:00 21,8 C 17,6 C 82 % 1013,3 hPa 0,0 l/m 0,00 h 0,00 h 0,0 UV-I 8 W/m 0,0 km/h (0 Bft)
26.07.2014 22:00 20,1 C 17,2 C 90 % 1013,9 hPa 0,0 l/m 0,00 h 0,00 h 0,0 UV-I 0 W/m 0,0 km/h (0 Bft)
26.07.2014 23:00 19,1 C 16,9 C 92 % 1014,2 hPa 0,0 l/m 0,00 h 0,00 h 0,0 UV-I 0 W/m 0,0 km/h (0 Bft)
27.07.2014 00:00 18,3 C 16,3 C 94 % 1014,3 hPa 0,0 l/m 0,00 h 0,00 h 0,0 UV-I 0 W/m 0,3 km/h (0 Bft)
27.07.2014 01:00 18,4 C 16,4 C 93 % 1014,5 hPa 0,0 l/m 0,00 h 0,00 h 0,0 UV-I 0 W/m 0,3 km/h (0 Bft)
27.07.2014 02:00 18,2 C 16,1 C 92 % 1014,4 hPa 0,0 l/m 0,00 h 0,00 h 0,0 UV-I 0 W/m 2,1 km/h (1 Bft)
27.07.2014 03:00 17,7 C 16,1 C 95 % 1014,1 hPa 0,0 l/m 0,00 h 0,00 h 0,0 UV-I 0 W/m 0,8 km/h (0 Bft)
27.07.2014 04:00 17,5 C 16,1 C 96 % 1014,2 hPa 0,0 l/m 0,00 h 0,00 h 0,0 UV-I 0 W/m 1,5 km/h (1 Bft)
27.07.2014 05:00 17,6 C 16,4 C 98 % 1014,5 hPa 0,0 l/m 0,00 h 0,00 h 0,0 UV-I 0 W/m 9,2 km/h (2 Bft)
27.07.2014 06:00 18,1 C 17,1 C 98 % 1014,8 hPa 0,0 l/m 0,00 h 0,00 h 0,0 UV-I 8 W/m 12,8 km/h (3 Bft)
27.07.2014 07:00 18,3 C 17,2 C 99 % 1015,2 hPa 0,0 l/m 0,00 h 0,00 h 0,0 UV-I 17 W/m 9,8 km/h (2 Bft)
27.07.2014 08:00 18,7 C 17,8 C 98 % 1015,7 hPa 0,0 l/m 0,00 h 0,00 h 0,0 UV-I 55 W/m 4,8 km/h (1 Bft)
27.07.2014 09:00 19,6 C 18,9 C 93 % 1015,9 hPa 0,0 l/m 0,00 h 0,00 h 0,5 UV-I 123 W/m 6,4 km/h (2 Bft)
27.07.2014 10:00 21,1 C 21,6 C 85 % 1016,0 hPa 0,0 l/m 0,33 h 0,00 h 1,6 UV-I 332 W/m 8,6 km/h (2 Bft)
27.07.2014 11:00 22,5 C 23,2 C 80 % 1016,2 hPa 0,0 l/m 0,47 h 0,00 h 2,2 UV-I 398 W/m 6,2 km/h (2 Bft)
27.07.2014 12:00 23,6 C 25,2 C 75 % 1015,9 hPa 0,0 l/m 0,60 h 0,00 h 3,6 UV-I 558 W/m 9,1 km/h (2 Bft)
27.07.2014 13:00 24,6 C 25,0 C 71 % 1015,7 hPa 0,0 l/m 0,50 h 0,00 h 3,3 UV-I 499 W/m 10,5 km/h (2 Bft)
27.07.2014 14:00 25,2 C 25,2 C 70 % 1015,6 hPa 0,0 l/m 0,63 h 0,00 h 3,3 UV-I 528 W/m 8,1 km/h (2 Bft)
27.07.2014 15:00 25,7 C 25,7 C 68 % 1015,3 hPa 0,0 l/m 0,87 h 0,00 h 2,8 UV-I 481 W/m 10,6 km/h (2 Bft)
27.07.2014 16:00 25,9 C 28,2 C 66 % 1014,9 hPa 0,0 l/m 1,00 h 0,00 h 2,5 UV-I 576 W/m 9,9 km/h (2 Bft)
27.07.2014 17:00 25,9 C 24,8 C 65 % 1014,5 hPa 0,0 l/m 0,97 h 0,00 h 1,2 UV-I 446 W/m 10,3 km/h (2 Bft)
27.07.2014 18:00 25,6 C 23,8 C 65 % 1014,2 hPa 0,0 l/m 0,80 h 0,00 h 0,5 UV-I 273 W/m 7,7 km/h (2 Bft)
27.07.2014 19:00 25,0 C 23,1 C 67 % 1014,0 hPa 0,0 l/m 0,17 h 0,00 h 0,0 UV-I 115 W/m 1,9 km/h (1 Bft)
27.07.2014 20:00 24,1 C 21,9 C 73 % 1014,2 hPa 0,0 l/m 0,00 h 0,00 h 0,0 UV-I 43 W/m 0,1 km/h (0 Bft)
27.07.2014 21:00 22,5 C 19,9 C 80 % 1014,6 hPa 0,0 l/m 0,00 h 0,00 h 0,0 UV-I 8 W/m 0,0 km/h (0 Bft)
27.07.2014 22:00 20,8 C 18,6 C 88 % 1014,7 hPa 0,0 l/m 0,00 h 0,00 h 0,0 UV-I 0 W/m 0,0 km/h (0 Bft)
27.07.2014 23:00 19,6 C 17,6 C 92 % 1014,4 hPa 0,0 l/m 0,00 h 0,00 h 0,0 UV-I 0 W/m 0,1 km/h (0 Bft)
Min-Datum _ 26.07.14 24.07.14 24.07.14 21.07.14 - - - - - 21.07.14
_ Min-Zeit 04:32 05:38 16:26 04:46 - - - - - 00:00
Minimum _ 15,1 C 13,9 C 45 % 1009,9 hPa - - - - - 0,0 km/h (0 Bft)
Max-Datum _ 23.07.14 23.07.14 21.07.14 22.07.14 21.07.14 21.07.14 21.07.14 25.07.14 25.07.14 24.07.14
_ Max-Zeit 16:32 16:44 06:16 23:14 09:28 12:34 08:36 13:42 13:28 18:00
Maximum _ 30,7 C 34,4 C 100 % 1018,7 hPa 4,4 l/m 0,03 h 0,03 h 5,5 UV-I 1039 W/m 48,1 km/h
S-SW (6 Bft)
Durchschnitt _ 21,1 C 20,1 C 83 % 1014,6 hPa #8,2 l/m #53:22 h #5:04 h 2,2 UV-I 287 W/m 9,3 km/h (2 Bft)
© 2014 W. Hausmann